Time;durP1;ratioP1;P1;durP2;ratioP2;P2;SDS_P1;SDS_P2;PMS_P1;PMS_P2;Temp;Humidity;BMP_temperature;BMP_pressure;BME280_temperature;BME280_humidity;BME280_pressure;Samples;Min_cycle;Max_cycle;Signal;HPM_P1;HPM_P2
2023/01/26 00:02:16;;;;;;;20.57;10.77;;;2.10;42.20;;;;;;6032743;23;20444;-71
2023/01/26 00:04:43;;;;;;;20.27;10.20;;;2.10;42.20;;;;;;6033384;23;20424;-71
2023/01/26 00:07:10;;;;;;;17.97;9.40;;;2.10;42.30;;;;;;6034904;23;20420;-71
2023/01/26 00:09:37;;;;;;;21.87;10.43;;;2.10;42.20;;;;;;6034900;23;20424;-71
2023/01/26 00:12:04;;;;;;;20.40;9.93;;;2.10;42.20;;;;;;6034575;23;20443;-73
2023/01/26 00:14:48;;;;;;;23.60;11.20;;;2.10;42.20;;;;;;6033962;23;20475;-71
2023/01/26 00:17:24;;;;;;;20.13;9.70;;;2.10;42.10;;;;;;6033386;23;20464;-71
2023/01/26 00:19:52;;;;;;;21.00;9.93;;;2.10;42.00;;;;;;6034136;23;20883;-71
2023/01/26 00:22:19;;;;;;;19.23;10.27;;;2.10;42.00;;;;;;6033262;23;20984;-71
2023/01/26 00:24:45;;;;;;;19.70;9.83;;;2.00;42.60;;;;;;6035044;23;20682;-71
2023/01/26 00:27:12;;;;;;;27.17;12.00;;;2.00;42.00;;;;;;6033683;23;20431;-71
2023/01/26 00:29:39;;;;;;;24.80;10.70;;;1.90;42.20;;;;;;6034875;23;20486;-72
2023/01/26 00:32:06;;;;;;;27.50;11.87;;;1.90;42.30;;;;;;6032901;23;20444;-73
2023/01/26 00:34:34;;;;;;;18.73;9.80;;;1.90;42.40;;;;;;6033949;23;20420;-72
2023/01/26 00:37:01;;;;;;;25.37;12.40;;;1.90;42.50;;;;;;6032898;23;20420;-72
2023/01/26 00:39:27;;;;;;;24.90;11.97;;;1.90;42.50;;;;;;6034930;23;20424;-73
2023/01/26 00:42:08;;;;;;;23.70;11.83;;;1.90;42.60;;;;;;6032002;23;20452;-72
2023/01/26 00:44:36;;;;;;;21.07;11.00;;;1.90;42.60;;;;;;6034790;23;20439;-72
2023/01/26 00:47:02;;;;;;;26.40;13.23;;;1.80;42.60;;;;;;6031879;23;20420;-72
2023/01/26 00:49:29;;;;;;;24.23;12.20;;;1.80;42.90;;;;;;6033997;23;20420;-72
2023/01/26 00:51:57;;;;;;;21.53;9.80;;;1.80;43.00;;;;;;6032678;23;20770;-72
2023/01/26 00:54:24;;;;;;;23.97;11.40;;;1.80;43.10;;;;;;6033029;23;20431;-72
2023/01/26 00:56:51;;;;;;;23.77;10.63;;;1.90;43.10;;;;;;6033450;23;20426;-73
2023/01/26 00:59:17;;;;;;;22.00;11.63;;;1.90;43.30;;;;;;6033713;23;20419;-72
2023/01/26 01:01:44;;;;;;;24.30;10.90;;;1.90;43.30;;;;;;6031293;23;20502;-73
2023/01/26 01:04:12;;;;;;;22.00;10.40;;;1.90;43.30;;;;;;6032318;23;20491;-71
2023/01/26 01:06:38;;;;;;;25.43;11.33;;;2.00;43.30;;;;;;6034005;23;20436;-72
2023/01/26 01:09:06;;;;;;;22.23;10.37;;;2.00;43.10;;;;;;6033901;23;20427;-72
2023/01/26 01:11:34;;;;;;;23.57;9.50;;;2.00;43.10;;;;;;6032521;23;20440;-72
2023/01/26 01:14:01;;;;;;;20.10;9.70;;;2.00;43.10;;;;;;6032907;23;20420;-72
2023/01/26 01:16:28;;;;;;;21.80;9.33;;;2.00;43.10;;;;;;6031851;23;20424;-71
2023/01/26 01:18:56;;;;;;;24.07;10.53;;;2.00;43.10;;;;;;6035105;23;20420;-71
2023/01/26 01:21:24;;;;;;;22.90;9.23;;;2.00;43.10;;;;;;6032217;23;20455;-73
2023/01/26 01:23:50;;;;;;;22.43;11.03;;;2.00;43.00;;;;;;6033124;23;20430;-72
2023/01/26 01:26:19;;;;;;;21.67;9.27;;;2.00;43.00;;;;;;6033331;23;20466;-71
2023/01/26 01:28:46;;;;;;;19.37;9.93;;;2.00;43.10;;;;;;6034946;23;20427;-72
2023/01/26 01:31:15;;;;;;;25.13;10.93;;;2.00;42.90;;;;;;6032166;23;21165;-72
2023/01/26 01:33:42;;;;;;;21.83;11.63;;;2.00;43.00;;;;;;6034158;23;20964;-72
2023/01/26 01:36:12;;;;;;;21.17;10.20;;;2.10;43.00;;;;;;6034258;23;20484;-72
2023/01/26 01:38:39;;;;;;;25.70;10.77;;;2.10;43.10;;;;;;6034310;23;20424;-72
2023/01/26 01:41:06;;;;;;;23.47;11.33;;;2.10;43.10;;;;;;6034188;23;20468;-72
2023/01/26 01:43:35;;;;;;;24.53;11.13;;;2.10;43.10;;;;;;6033167;23;20426;-72
2023/01/26 01:46:04;;;;;;;22.57;10.90;;;2.10;43.10;;;;;;6033625;23;20423;-72
2023/01/26 01:48:36;;;;;;;23.77;11.97;;;2.10;43.00;;;;;;6031985;23;20503;-72
2023/01/26 01:51:06;;;;;;;21.13;10.10;;;2.10;43.10;;;;;;6033683;23;20894;-72
2023/01/26 01:53:37;;;;;;;23.10;10.33;;;2.10;42.90;;;;;;6033254;23;20405;-72
2023/01/26 01:56:09;;;;;;;25.27;11.10;;;2.10;42.80;;;;;;6033407;23;20748;-71
2023/01/26 01:58:41;;;;;;;28.47;11.90;;;2.00;42.90;;;;;;6033903;23;20677;-71
2023/01/26 02:01:08;;;;;;;20.57;9.63;;;2.00;42.90;;;;;;6032499;23;20455;-71
2023/01/26 02:03:36;;;;;;;22.67;11.40;;;2.00;43.00;;;;;;6033722;23;20432;-73
2023/01/26 02:06:07;;;;;;;20.93;11.17;;;2.00;43.10;;;;;;6031478;23;20423;-71
2023/01/26 02:08:38;;;;;;;24.30;11.27;;;2.10;43.10;;;;;;6032522;23;20408;-71
2023/01/26 02:11:09;;;;;;;22.80;11.00;;;2.10;43.10;;;;;;6032382;23;20759;-72
2023/01/26 02:13:39;;;;;;;21.10;10.20;;;2.10;43.10;;;;;;6033326;23;20405;-72
2023/01/26 02:16:06;;;;;;;23.23;10.70;;;2.10;43.10;;;;;;6032813;23;21136;-71
2023/01/26 02:18:33;;;;;;;21.90;11.00;;;2.10;43.00;;;;;;6032884;23;20460;-71
2023/01/26 02:21:02;;;;;;;22.30;10.10;;;2.10;43.00;;;;;;6032389;23;20459;-72
2023/01/26 02:23:41;;;;;;;25.20;10.10;;;2.20;42.90;;;;;;6034199;23;20426;-72
2023/01/26 02:26:12;;;;;;;23.83;11.77;;;2.20;42.80;;;;;;6032527;23;20779;-73
2023/01/26 02:28:40;;;;;;;24.90;10.20;;;2.20;42.70;;;;;;6033870;23;20404;-72
2023/01/26 02:31:08;;;;;;;22.57;10.53;;;2.20;42.60;;;;;;6030799;23;20441;-72
2023/01/26 02:33:35;;;;;;;21.30;10.47;;;2.10;42.50;;;;;;6033438;23;20420;-72
2023/01/26 02:36:03;;;;;;;28.13;12.70;;;2.10;42.40;;;;;;6035849;23;20424;-72
2023/01/26 02:38:37;;;;;;;24.03;11.03;;;2.10;42.40;;;;;;6035231;23;21118;-72
2023/01/26 02:41:07;;;;;;;21.70;11.33;;;2.10;42.40;;;;;;6035311;23;20412;-72
2023/01/26 02:43:35;;;;;;;24.50;11.67;;;2.10;42.50;;;;;;6034736;23;20408;-72
2023/01/26 02:46:02;;;;;;;23.30;12.50;;;2.10;42.50;;;;;;6034723;23;20428;-72
2023/01/26 02:51:13;;;;;;;24.73;11.83;;;2.10;43.20;;;;;;6034948;23;20803;-72
2023/01/26 02:53:39;;;;;;;27.00;12.20;;;2.10;42.60;;;;;;6044071;23;20980;-72
2023/01/26 02:56:06;;;;;;;28.77;12.70;;;2.10;42.60;;;;;;6034953;23;20420;-72
2023/01/26 02:58:32;;;;;;;23.87;11.80;;;2.10;42.70;;;;;;6035358;23;20427;-72
2023/01/26 03:01:00;;;;;;;24.17;9.93;;;2.10;42.60;;;;;;6034557;23;20439;-72
2023/01/26 03:03:40;;;;;;;26.40;11.87;;;2.10;42.70;;;;;;6034160;23;20989;-72
2023/01/26 03:06:08;;;;;;;23.53;11.90;;;2.10;42.70;;;;;;6035369;23;20467;-72
2023/01/26 03:08:35;;;;;;;23.20;12.20;;;2.10;42.70;;;;;;6035293;23;20420;-72
2023/01/26 03:11:01;;;;;;;22.20;11.93;;;2.00;42.60;;;;;;6034697;23;20424;-72
2023/01/26 03:13:28;;;;;;;25.70;12.23;;;2.00;42.60;;;;;;6034538;23;20420;-72
2023/01/26 03:15:55;;;;;;;26.93;11.80;;;1.90;42.80;;;;;;6035544;23;20419;-72
2023/01/26 03:29:28;;;;;;;23.93;11.00;;;2.00;42.90;;;;;;6035618;23;20515;-72
2023/01/26 03:31:55;;;;;;;25.90;12.40;;;2.00;43.00;;;;;;6032386;23;20440;-72
2023/01/26 03:34:23;;;;;;;29.37;13.00;;;2.00;43.10;;;;;;6035290;23;20420;-71
2023/01/26 03:36:49;;;;;;;29.23;14.70;;;2.00;43.10;;;;;;6033332;23;20750;-72
2023/01/26 03:58:31;;;;;;;26.80;12.13;;;1.90;43.30;;;;;;6033159;23;20571;-72
2023/01/26 04:00:58;;;;;;;25.67;12.90;;;1.90;43.40;;;;;;6033367;23;20463;-72
2023/01/26 04:08:54;;;;;;;26.73;12.37;;;1.90;43.20;;;;;;6035035;23;20404;-71
2023/01/26 04:11:21;;;;;;;29.03;14.20;;;1.90;43.20;;;;;;6032508;23;20741;-73
2023/01/26 04:22:01;;;;;;;22.47;11.20;;;1.90;43.20;;;;;;6033920;23;20496;-73
2023/01/26 04:24:28;;;;;;;26.83;12.90;;;1.90;43.20;;;;;;6034511;23;20450;-73
2023/01/26 04:26:54;;;;;;;27.20;15.33;;;1.90;43.20;;;;;;6033854;23;20674;-73
2023/01/26 04:29:21;;;;;;;32.63;13.87;;;1.90;43.30;;;;;;6033743;23;20949;-73
2023/01/26 04:31:48;;;;;;;24.80;12.43;;;1.90;43.10;;;;;;6033543;23;20447;-73
2023/01/26 04:34:15;;;;;;;32.47;13.83;;;1.90;43.00;;;;;;6033687;23;20420;-73
2023/01/26 04:36:43;;;;;;;26.20;13.77;;;1.90;43.00;;;;;;6035272;23;20420;-73
2023/01/26 04:39:11;;;;;;;28.23;13.70;;;1.90;42.90;;;;;;6034114;23;20899;-72
2023/01/26 04:41:38;;;;;;;27.87;13.93;;;1.90;42.90;;;;;;6034275;23;20444;-72
2023/01/26 04:44:05;;;;;;;30.57;15.47;;;1.90;42.90;;;;;;6034045;23;20424;-73
2023/01/26 04:46:32;;;;;;;34.10;15.67;;;1.90;43.00;;;;;;6033553;23;20427;-73
2023/01/26 04:48:58;;;;;;;25.27;11.93;;;1.90;43.10;;;;;;6034637;23;20424;-73
2023/01/26 04:51:27;;;;;;;28.23;12.60;;;1.80;42.90;;;;;;6033336;23;20865;-71
2023/01/26 04:53:53;;;;;;;28.40;15.23;;;1.80;43.60;;;;;;6033056;23;20902;-72
2023/01/26 04:56:24;;;;;;;29.60;13.70;;;1.90;42.90;;;;;;6033218;23;20516;-71
2023/01/26 04:58:52;;;;;;;32.40;12.40;;;1.90;42.80;;;;;;6034465;23;20411;-71
2023/01/26 05:03:48;;;;;;;30.77;15.07;;;1.90;42.70;;;;;;6060064;23;20904;-62
2023/01/26 05:06:15;;;;;;;27.57;12.90;;;1.90;42.40;;;;;;6060411;23;20805;-62
2023/01/26 05:08:42;;;;;;;35.03;17.80;;;1.80;42.40;;;;;;6063004;23;20419;-61
2023/01/26 05:11:09;;;;;;;29.67;13.67;;;1.90;42.70;;;;;;6061583;23;20430;-59
2023/01/26 05:13:38;;;;;;;32.93;14.90;;;1.90;42.80;;;;;;6062124;23;20419;-60
2023/01/26 05:16:06;;;;;;;33.57;15.33;;;1.80;42.90;;;;;;6061753;23;20503;-60
2023/01/26 05:18:33;;;;;;;32.77;15.20;;;1.80;43.00;;;;;;6061348;23;20420;-60
2023/01/26 05:21:00;;;;;;;28.60;15.03;;;1.80;43.00;;;;;;6061788;23;20418;-60
2023/01/26 05:23:27;;;;;;;34.97;15.53;;;1.80;43.10;;;;;;6062109;23;20619;-60
2023/01/26 05:25:53;;;;;;;31.03;14.90;;;1.80;42.90;;;;;;6061954;23;20430;-60
2023/01/26 05:28:20;;;;;;;26.43;13.70;;;1.80;42.90;;;;;;6060164;23;20442;-60
2023/01/26 05:30:48;;;;;;;28.70;13.73;;;1.80;42.80;;;;;;6059076;23;20438;-59
2023/01/26 05:33:15;;;;;;;29.37;13.40;;;1.80;42.70;;;;;;6059076;23;20811;-60
2023/01/26 05:35:42;;;;;;;23.70;11.93;;;1.80;42.80;;;;;;6058751;23;20848;-60
2023/01/26 05:38:09;;;;;;;28.80;12.93;;;1.80;42.70;;;;;;6058523;23;20489;-59
2023/01/26 05:40:36;;;;;;;28.70;15.20;;;1.80;42.70;;;;;;6061532;23;20423;-59
2023/01/26 05:43:02;;;;;;;26.17;11.70;;;1.80;42.90;;;;;;6059863;23;21017;-59
2023/01/26 05:45:29;;;;;;;28.30;13.00;;;1.80;42.60;;;;;;6060734;23;20419;-59
2023/01/26 05:47:57;;;;;;;26.30;11.83;;;1.80;42.70;;;;;;6061102;23;20466;-61
2023/01/26 05:50:24;;;;;;;30.17;13.57;;;1.80;42.80;;;;;;6061023;23;20485;-62
2023/01/26 05:52:51;;;;;;;29.47;14.93;;;1.80;42.90;;;;;;6062263;23;20435;-61
2023/01/26 05:55:18;;;;;;;27.47;11.47;;;1.80;42.90;;;;;;6061730;23;20431;-61
2023/01/26 05:57:44;;;;;;;27.33;13.30;;;1.80;43.50;;;;;;6062234;23;20419;-60
2023/01/26 06:00:13;;;;;;;26.50;13.20;;;1.80;43.00;;;;;;6062716;23;20427;-60
2023/01/26 06:02:39;;;;;;;26.03;11.77;;;1.80;42.90;;;;;;6061568;23;20447;-60
2023/01/26 06:05:09;;;;;;;25.43;13.00;;;1.80;43.00;;;;;;6063369;23;20423;-59
2023/01/26 06:07:35;;;;;;;33.00;14.30;;;1.80;43.00;;;;;;6062044;23;20419;-58
2023/01/26 06:10:03;;;;;;;26.73;13.27;;;1.80;43.00;;;;;;6065762;23;20418;-60
2023/01/26 06:12:34;;;;;;;28.40;12.47;;;1.80;43.00;;;;;;6062943;23;20443;-57
2023/01/26 06:15:01;;;;;;;25.43;13.10;;;1.80;43.30;;;;;;6066273;23;20489;-60
2023/01/26 06:17:28;;;;;;;28.30;13.50;;;1.80;43.00;;;;;;6064226;23;20422;-60
2023/01/26 06:19:54;;;;;;;28.70;14.63;;;1.80;43.00;;;;;;6064590;23;20877;-60
2023/01/26 06:22:23;;;;;;;27.73;13.70;;;1.90;43.20;;;;;;6065217;23;20454;-59
2023/01/26 06:24:49;;;;;;;24.80;13.03;;;1.90;43.20;;;;;;6062660;23;20935;-60
2023/01/26 06:27:17;;;;;;;24.47;12.97;;;1.90;43.30;;;;;;6064713;23;20446;-59
2023/01/26 06:29:44;;;;;;;25.90;12.10;;;1.90;43.30;;;;;;6064934;23;21075;-59
2023/01/26 06:32:11;;;;;;;19.57;11.33;;;1.90;43.30;;;;;;6064812;23;20439;-59
2023/01/26 06:34:38;;;;;;;24.03;12.40;;;2.00;43.30;;;;;;6065333;23;20484;-60
2023/01/26 06:37:06;;;;;;;23.10;12.23;;;2.00;43.30;;;;;;6066342;23;20418;-60
2023/01/26 06:39:34;;;;;;;23.73;12.23;;;2.00;43.90;;;;;;6063518;23;20896;-59
2023/01/26 06:42:01;;;;;;;23.40;11.20;;;2.00;43.10;;;;;;6064771;23;20971;-59
2023/01/26 06:44:27;;;;;;;24.87;11.63;;;2.00;43.10;;;;;;6066016;23;20415;-59
2023/01/26 06:46:54;;;;;;;24.93;12.83;;;2.10;43.10;;;;;;6066055;23;20419;-59
2023/01/26 06:49:21;;;;;;;26.07;12.60;;;2.10;43.10;;;;;;6066097;23;20422;-59
2023/01/26 06:51:55;;;;;;;26.30;12.50;;;2.10;43.10;;;;;;6062381;23;20442;-60
2023/01/26 06:54:22;;;;;;;23.93;12.27;;;2.10;43.10;;;;;;6064549;23;20409;-60
2023/01/26 06:56:50;;;;;;;23.67;11.67;;;2.10;43.00;;;;;;6064559;23;20422;-60
2023/01/26 06:59:17;;;;;;;32.80;13.33;;;2.10;42.90;;;;;;6065570;23;20751;-59
2023/01/26 07:01:47;;;;;;;25.60;10.83;;;2.10;42.90;;;;;;6063031;23;20470;-60
2023/01/26 07:04:14;;;;;;;22.70;10.03;;;2.20;42.90;;;;;;6065618;23;20436;-60
2023/01/26 07:06:42;;;;;;;28.57;11.80;;;2.20;42.70;;;;;;6064342;23;20879;-59
2023/01/26 07:09:09;;;;;;;28.63;12.60;;;2.20;42.70;;;;;;6065371;23;20445;-59
2023/01/26 07:11:36;;;;;;;23.87;11.00;;;2.10;42.80;;;;;;6065115;23;20446;-59
2023/01/26 07:14:04;;;;;;;24.23;12.03;;;2.10;42.80;;;;;;6065347;23;20415;-59
2023/01/26 07:16:31;;;;;;;24.60;11.73;;;2.10;42.80;;;;;;6064474;23;21041;-59
2023/01/26 07:18:57;;;;;;;26.57;12.67;;;2.10;42.70;;;;;;6065108;23;20426;-59
2023/01/26 07:21:24;;;;;;;20.33;10.40;;;2.20;42.70;;;;;;6060787;23;20429;-59
2023/01/26 07:23:52;;;;;;;22.00;12.43;;;2.20;42.70;;;;;;6063901;23;20439;-60
2023/01/26 07:26:19;;;;;;;22.60;12.80;;;2.20;42.60;;;;;;6064554;23;20478;-59
2023/01/26 07:28:46;;;;;;;22.33;10.73;;;2.20;42.60;;;;;;6063904;23;20748;-59
2023/01/26 07:31:14;;;;;;;25.53;12.07;;;2.20;42.60;;;;;;6061319;23;20440;-59
2023/01/26 07:33:41;;;;;;;24.23;12.93;;;2.20;42.50;;;;;;6062815;23;20415;-59
2023/01/26 07:36:09;;;;;;;25.97;12.30;;;2.20;42.60;;;;;;6064443;23;20423;-60
2023/01/26 07:38:36;;;;;;;22.33;9.90;;;2.20;42.60;;;;;;6064010;23;20647;-60
2023/01/26 07:41:09;;;;;;;23.70;11.77;;;2.20;42.60;;;;;;6063394;23;20925;-59
2023/01/26 07:43:37;;;;;;;24.40;11.63;;;2.20;42.60;;;;;;6064021;23;21043;-60
2023/01/26 07:46:04;;;;;;;26.13;13.60;;;2.20;42.60;;;;;;6064257;23;20427;-62
2023/01/26 07:48:33;;;;;;;22.90;12.30;;;2.20;42.60;;;;;;6064100;23;20907;-61
2023/01/26 07:51:02;;;;;;;21.13;10.50;;;2.20;42.60;;;;;;6062603;23;20482;-60
2023/01/26 07:53:29;;;;;;;23.63;11.80;;;2.20;42.40;;;;;;6063795;23;20436;-62
2023/01/26 07:56:06;;;;;;;23.93;11.70;;;2.20;42.40;;;;;;6063486;23;20502;-59
2023/01/26 07:58:34;;;;;;;23.50;11.03;;;2.20;42.50;;;;;;6063554;23;20881;-61
2023/01/26 08:01:08;;;;;;;23.40;10.67;;;2.20;42.40;;;;;;6062393;23;20518;-60
2023/01/26 08:03:36;;;;;;;20.93;11.10;;;2.20;42.40;;;;;;6062448;23;20450;-61
2023/01/26 08:06:03;;;;;;;24.13;12.43;;;2.20;42.40;;;;;;6062629;23;20426;-60
2023/01/26 08:08:32;;;;;;;18.37;9.60;;;2.20;42.30;;;;;;6055828;23;20415;-60
2023/01/26 08:10:59;;;;;;;22.53;11.13;;;2.20;42.30;;;;;;6059939;23;20434;-58
2023/01/26 08:13:26;;;;;;;20.77;10.17;;;2.20;42.40;;;;;;6060317;23;20435;-59
2023/01/26 08:15:53;;;;;;;23.57;11.43;;;2.20;42.30;;;;;;6060041;23;20427;-60
2023/01/26 08:18:20;;;;;;;18.90;9.93;;;2.20;42.20;;;;;;6061960;23;20441;-58
2023/01/26 08:20:53;;;;;;;18.90;10.30;;;2.20;42.20;;;;;;6062857;23;20441;-57
2023/01/26 08:23:20;;;;;;;21.60;11.10;;;2.30;42.40;;;;;;6060095;23;20447;-60
2023/01/26 08:25:47;;;;;;;24.37;11.70;;;2.30;42.30;;;;;;6061196;23;20524;-58
2023/01/26 08:28:14;;;;;;;24.07;11.63;;;2.30;42.30;;;;;;6059705;23;20426;-61
2023/01/26 08:30:41;;;;;;;22.30;10.83;;;2.30;42.30;;;;;;6057739;23;21019;-61
2023/01/26 08:33:08;;;;;;;19.60;10.50;;;2.30;42.30;;;;;;6059795;23;20798;-60
2023/01/26 08:35:35;;;;;;;20.80;10.67;;;2.30;42.90;;;;;;6061905;23;20419;-60
2023/01/26 08:38:04;;;;;;;21.37;10.57;;;2.30;42.40;;;;;;6060883;23;20493;-59
2023/01/26 08:40:30;;;;;;;22.40;10.90;;;2.30;42.20;;;;;;6057155;23;20419;-60
2023/01/26 08:43:00;;;;;;;23.97;10.70;;;2.30;42.10;;;;;;6060163;23;20447;-60
2023/01/26 08:45:28;;;;;;;22.13;10.80;;;2.30;42.20;;;;;;6060225;23;20423;-59
2023/01/26 08:47:55;;;;;;;21.67;10.10;;;2.30;42.10;;;;;;6062393;23;20428;-60
2023/01/26 08:50:21;;;;;;;21.43;10.77;;;2.30;42.00;;;;;;6061438;23;20426;-60
2023/01/26 08:52:48;;;;;;;18.27;9.47;;;2.40;42.00;;;;;;6057867;23;20447;-59
2023/01/26 08:55:16;;;;;;;21.27;9.77;;;2.40;42.00;;;;;;6060745;23;20419;-60
2023/01/26 08:57:44;;;;;;;21.73;9.60;;;2.40;41.90;;;;;;6070966;23;20956;-60
2023/01/26 09:00:12;;;;;;;22.50;10.57;;;2.40;41.90;;;;;;6062342;23;20486;-62
2023/01/26 09:02:38;;;;;;;18.27;9.53;;;2.40;42.00;;;;;;6058987;23;20486;-61
2023/01/26 09:05:06;;;;;;;17.00;8.77;;;2.40;41.60;;;;;;6060046;23;20907;-61
2023/01/26 09:07:33;;;;;;;18.40;8.10;;;2.40;41.60;;;;;;6062032;23;20427;-60
2023/01/26 09:09:59;;;;;;;19.20;9.30;;;2.40;41.60;;;;;;6060865;23;20419;-62
2023/01/26 09:12:27;;;;;;;16.77;8.90;;;2.40;41.60;;;;;;6063002;23;20446;-61
2023/01/26 09:14:54;;;;;;;17.13;8.93;;;2.50;41.50;;;;;;6057614;23;21056;-60
2023/01/26 09:17:21;;;;;;;18.97;9.30;;;2.50;41.60;;;;;;6061824;23;20902;-60
2023/01/26 09:19:47;;;;;;;19.43;9.50;;;2.50;41.60;;;;;;6058370;23;20419;-63
2023/01/26 09:22:14;;;;;;;18.67;9.20;;;2.50;41.50;;;;;;6060172;23;20510;-60
2023/01/26 09:24:41;;;;;;;18.80;10.17;;;2.50;41.30;;;;;;6061681;23;20443;-61
2023/01/26 09:27:08;;;;;;;18.30;7.60;;;2.60;41.10;;;;;;6059892;23;20431;-62
2023/01/26 09:29:36;;;;;;;17.17;7.20;;;2.60;41.00;;;;;;6062405;23;20454;-62
2023/01/26 09:32:03;;;;;;;18.77;7.50;;;2.60;40.90;;;;;;6061688;23;20447;-61
2023/01/26 09:34:29;;;;;;;21.03;8.47;;;2.60;40.80;;;;;;6061574;23;20942;-60
2023/01/26 09:36:57;;;;;;;16.33;9.83;;;2.60;41.30;;;;;;6066818;23;20430;-62
2023/01/26 09:39:23;;;;;;;19.27;7.73;;;2.60;40.60;;;;;;6059222;23;20450;-61
2023/01/26 09:42:02;;;;;;;17.43;7.83;;;2.60;40.60;;;;;;6062843;23;20435;-60
2023/01/26 09:44:34;;;;;;;18.63;8.77;;;2.70;40.60;;;;;;6061651;23;21066;-61
2023/01/26 09:47:08;;;;;;;16.33;7.57;;;2.70;40.40;;;;;;6063350;23;20403;-62
2023/01/26 09:49:46;;;;;;;16.93;8.00;;;2.70;40.50;;;;;;6062565;23;20419;-62
2023/01/26 09:52:20;;;;;;;17.00;8.23;;;2.80;40.40;;;;;;6058127;23;20953;-61
2023/01/26 09:54:51;;;;;;;16.83;8.17;;;2.80;40.40;;;;;;6062360;23;20406;-62
2023/01/26 09:57:20;;;;;;;17.23;8.23;;;2.80;40.40;;;;;;6060194;23;20704;-61
2023/01/26 09:59:52;;;;;;;15.80;7.93;;;2.80;40.40;;;;;;6061661;23;20419;-61
2023/01/26 10:02:33;;;;;;;17.43;8.20;;;2.80;40.40;;;;;;6060989;23;20443;-62
2023/01/26 10:05:06;;;;;;;19.10;8.60;;;2.90;40.20;;;;;;6059474;23;20431;-63
2023/01/26 10:07:32;;;;;;;18.20;8.10;;;2.90;40.10;;;;;;6059390;23;20414;-63
2023/01/26 10:09:59;;;;;;;17.07;7.70;;;2.90;39.80;;;;;;6060491;23;21142;-63
2023/01/26 10:12:30;;;;;;;15.37;7.90;;;2.90;39.80;;;;;;6061528;23;20446;-61
2023/01/26 10:15:01;;;;;;;16.60;7.80;;;2.90;39.90;;;;;;6058800;23;20408;-62
2023/01/26 10:17:34;;;;;;;16.80;8.13;;;3.00;39.90;;;;;;6057821;23;20773;-61
2023/01/26 10:20:05;;;;;;;18.23;8.03;;;3.00;39.60;;;;;;6059836;23;20407;-61
2023/01/26 10:22:40;;;;;;;19.60;9.27;;;3.00;39.50;;;;;;6061649;23;20443;-62
2023/01/26 10:25:15;;;;;;;17.23;8.30;;;3.00;39.60;;;;;;6056166;23;20426;-61
2023/01/26 10:27:44;;;;;;;16.37;9.00;;;3.00;39.60;;;;;;6061081;23;20407;-60
2023/01/26 10:30:13;;;;;;;16.70;7.83;;;3.00;39.50;;;;;;6056163;23;20434;-59
2023/01/26 10:32:43;;;;;;;16.93;8.17;;;3.00;39.40;;;;;;6061003;23;20420;-60
2023/01/26 10:35:16;;;;;;;17.90;7.60;;;3.00;39.40;;;;;;6059302;23;20419;-61
2023/01/26 10:37:43;;;;;;;18.60;7.63;;;2.90;39.40;;;;;;6061087;23;21244;-59
2023/01/26 10:40:11;;;;;;;17.10;7.90;;;3.00;39.20;;;;;;6059739;23;20423;-60
2023/01/26 10:42:38;;;;;;;17.40;8.07;;;3.00;39.20;;;;;;6059963;23;20780;-60
2023/01/26 10:45:08;;;;;;;14.50;7.50;;;3.00;38.90;;;;;;6057158;23;20981;-62
2023/01/26 10:47:34;;;;;;;15.30;7.50;;;3.00;38.90;;;;;;6060166;23;20423;-61
2023/01/26 10:50:21;;;;;;;14.23;6.70;;;3.00;39.00;;;;;;6060071;23;20430;-61
2023/01/26 10:52:57;;;;;;;14.77;7.50;;;3.00;39.10;;;;;;6056024;23;20439;-61
2023/01/26 10:55:24;;;;;;;17.93;8.80;;;3.00;38.80;;;;;;6062015;23;20407;-66
2023/01/26 10:57:51;;;;;;;17.40;8.87;;;3.10;38.60;;;;;;6060632;23;20952;-59
2023/01/26 11:00:27;;;;;;;19.37;9.60;;;3.10;38.60;;;;;;6060066;23;20988;-59
2023/01/26 11:02:58;;;;;;;16.60;9.13;;;3.00;38.60;;;;;;6055546;23;20455;-71
2023/01/26 11:05:27;;;;;;;14.03;7.70;;;3.00;38.70;;;;;;6060645;23;20450;-71
2023/01/26 11:07:59;;;;;;;16.23;6.73;;;3.00;38.70;;;;;;6060723;23;20756;-69
2023/01/26 11:10:31;;;;;;;18.03;8.90;;;3.00;38.70;;;;;;6063796;23;20871;-71
2023/01/26 11:13:13;;;;;;;18.40;8.10;;;3.00;38.50;;;;;;6048310;23;20446;-72
2023/01/26 11:15:41;;;;;;;17.20;9.37;;;3.00;38.50;;;;;;6031950;23;20400;-72
2023/01/26 11:18:17;;;;;;;14.97;6.73;;;3.00;38.40;;;;;;6032632;23;20587;-71
2023/01/26 11:20:51;;;;;;;15.00;7.13;;;3.00;38.20;;;;;;6033284;23;20404;-71
2023/01/26 11:23:28;;;;;;;13.53;7.53;;;3.00;38.10;;;;;;6032498;23;20448;-71
2023/01/26 11:26:13;;;;;;;15.50;7.40;;;3.00;38.10;;;;;;6035250;23;20405;-71
2023/01/26 11:28:54;;;;;;;15.20;8.07;;;3.00;38.20;;;;;;6035115;23;20400;-71
2023/01/26 11:31:31;;;;;;;17.83;7.10;;;2.90;38.20;;;;;;6034145;23;20443;-70
2023/01/26 11:34:10;;;;;;;13.23;6.43;;;2.90;38.30;;;;;;6033682;23;21181;-72
2023/01/26 11:36:48;;;;;;;12.87;7.20;;;2.90;38.10;;;;;;6030787;23;20409;-70
2023/01/26 11:39:21;;;;;;;14.40;7.07;;;2.90;38.10;;;;;;6034151;23;20408;-70
2023/01/26 11:42:01;;;;;;;24.60;9.73;;;3.00;38.00;;;;;;6030800;23;20404;-70
2023/01/26 11:44:57;;;;;;;19.43;11.20;;;2.90;38.00;;;;;;6042802;23;20810;-70
2023/01/26 11:47:38;;;;;;;17.10;8.10;;;2.90;38.00;;;;;;6033127;23;20871;-70
2023/01/26 11:50:26;;;;;;;23.83;12.50;;;3.00;37.80;;;;;;6033142;23;20405;-68
2023/01/26 11:53:18;;;;;;;20.90;9.77;;;2.90;37.80;;;;;;6032519;23;20441;-70
2023/01/26 11:55:59;;;;;;;21.37;10.13;;;3.00;37.80;;;;;;6040789;23;20473;-69
2023/01/26 11:58:32;;;;;;;16.63;8.80;;;3.00;37.70;;;;;;6034700;23;20411;-69
2023/01/26 12:01:01;;;;;;;15.77;7.97;;;3.00;37.70;;;;;;6034174;23;20440;-70
2023/01/26 12:03:38;;;;;;;11.53;6.53;;;3.00;37.50;;;;;;6032453;23;20448;-70
2023/01/26 12:06:07;;;;;;;14.97;8.17;;;3.00;37.20;;;;;;6033434;23;20396;-70
2023/01/26 12:08:40;;;;;;;14.83;8.23;;;3.00;37.10;;;;;;6033872;23;20424;-70
2023/01/26 12:11:22;;;;;;;14.70;7.40;;;3.00;37.00;;;;;;6033494;23;20948;-71
2023/01/26 12:14:05;;;;;;;13.17;7.30;;;3.00;37.00;;;;;;6034235;23;20463;-72
2023/01/26 12:16:43;;;;;;;14.50;7.37;;;3.00;36.90;;;;;;6032988;23;20403;-71
2023/01/26 12:19:14;;;;;;;15.00;7.97;;;3.00;36.90;;;;;;6033859;23;20404;-72
2023/01/26 12:21:44;;;;;;;16.00;8.70;;;3.00;36.80;;;;;;6032992;23;20413;-69
2023/01/26 12:24:20;;;;;;;17.80;10.43;;;3.00;36.90;;;;;;6033651;23;20504;-69
2023/01/26 12:26:50;;;;;;;15.40;7.50;;;2.90;36.90;;;;;;6030261;23;20432;-69
2023/01/26 12:29:21;;;;;;;12.57;6.90;;;2.90;36.90;;;;;;6032941;23;20423;-65
2023/01/26 12:31:52;;;;;;;13.30;7.37;;;2.90;36.90;;;;;;6033516;23;20447;-68
2023/01/26 12:34:25;;;;;;;15.73;7.47;;;2.90;36.90;;;;;;6033611;23;20470;-65
2023/01/26 12:37:03;;;;;;;12.60;6.87;;;2.90;36.80;;;;;;6035118;23;20411;-68
2023/01/26 12:39:35;;;;;;;13.47;6.97;;;2.90;36.60;;;;;;6033618;23;20439;-67
2023/01/26 12:42:27;;;;;;;14.33;7.33;;;3.00;36.40;;;;;;6042871;23;20914;-65
2023/01/26 12:44:55;;;;;;;16.00;8.17;;;2.90;36.40;;;;;;6028376;23;20981;-70
2023/01/26 12:47:26;;;;;;;12.10;6.20;;;3.00;36.20;;;;;;6031405;23;20456;-65
2023/01/26 12:49:59;;;;;;;17.60;8.20;;;2.90;35.80;;;;;;6029682;23;20408;-66
2023/01/26 12:52:32;;;;;;;18.60;8.30;;;2.90;35.90;;;;;;6031509;23;20450;-72
2023/01/26 12:55:06;;;;;;;16.00;8.13;;;2.90;36.00;;;;;;6027780;23;20411;-70
2023/01/26 12:57:39;;;;;;;19.63;8.27;;;2.90;36.10;;;;;;6033302;23;21053;-72
2023/01/26 13:00:17;;;;;;;19.87;9.13;;;2.90;36.20;;;;;;6031941;23;20409;-72
2023/01/26 13:02:46;;;;;;;26.03;10.00;;;2.90;36.10;;;;;;6032483;23;20455;-72
2023/01/26 13:05:24;;;;;;;18.30;7.33;;;2.90;36.10;;;;;;6030865;23;20429;-72
2023/01/26 13:07:51;;;;;;;23.43;7.20;;;2.90;36.20;;;;;;6033640;23;20408;-71
2023/01/26 13:10:42;;;;;;;28.10;8.97;;;2.90;36.00;;;;;;6033853;23;20430;-72
2023/01/26 13:13:29;;;;;;;19.63;8.37;;;2.90;36.20;;;;;;6033046;23;20447;-70
2023/01/26 13:16:31;;;;;;;24.30;8.00;;;2.90;36.20;;;;;;6032719;23;20397;-72
2023/01/26 13:18:59;;;;;;;16.47;7.87;;;2.90;36.20;;;;;;6033257;23;20459;-71
2023/01/26 13:21:27;;;;;;;15.50;6.97;;;2.90;36.10;;;;;;6031165;23;20423;-72
2023/01/26 13:23:54;;;;;;;12.57;6.60;;;2.90;36.10;;;;;;6033845;23;20444;-72
2023/01/26 13:26:43;;;;;;;13.53;7.53;;;2.90;36.10;;;;;;6030768;23;20416;-72
2023/01/26 13:29:31;;;;;;;12.83;6.80;;;2.90;36.20;;;;;;6031768;23;20735;-72
2023/01/26 13:31:59;;;;;;;12.27;6.87;;;2.90;36.20;;;;;;6027829;23;20511;-73
2023/01/26 13:34:29;;;;;;;13.00;6.40;;;2.80;36.00;;;;;;6032080;23;20448;-73
2023/01/26 13:37:03;;;;;;;12.53;5.77;;;2.80;35.90;;;;;;6032289;23;20499;-73
2023/01/26 13:39:34;;;;;;;14.27;7.37;;;2.70;35.40;;;;;;6033987;23;20405;-73
2023/01/26 13:42:03;;;;;;;13.63;7.77;;;2.60;35.30;;;;;;6030746;23;20941;-72
2023/01/26 13:44:37;;;;;;;13.67;6.33;;;2.50;36.20;;;;;;6032974;23;20970;-72